createdAt,value
2023-03-12T00:00:27.950Z,6.40
2023-03-12T00:03:22.207Z,6.50
2023-03-12T00:05:56.331Z,6.00
2023-03-12T00:08:30.459Z,6.60
2023-03-12T00:11:09.614Z,5.20
2023-03-12T00:13:44.284Z,4.70
2023-03-12T00:16:19.268Z,6.40
2023-03-12T00:18:55.603Z,8.20
2023-03-12T00:21:30.173Z,8.40
2023-03-12T00:24:05.647Z,6.80
2023-03-12T00:26:40.063Z,6.30
2023-03-12T00:29:14.063Z,7.80
2023-03-12T00:31:48.163Z,7.40
2023-03-12T00:34:22.224Z,6.20
2023-03-12T00:36:56.220Z,7.20
2023-03-12T00:39:30.389Z,5.20
2023-03-12T00:42:04.955Z,6.30
2023-03-12T00:44:39.013Z,6.50
2023-03-12T00:47:13.444Z,6.10
2023-03-12T00:49:47.773Z,5.80
2023-03-12T00:52:21.785Z,5.50
2023-03-12T00:54:58.450Z,5.40
2023-03-12T00:57:32.776Z,7.10
2023-03-12T01:00:10.296Z,6.00
2023-03-12T01:02:44.766Z,5.20
2023-03-12T01:05:19.387Z,4.00
2023-03-12T01:07:54.473Z,5.30
2023-03-12T01:10:28.779Z,5.00
2023-03-12T01:13:03.582Z,6.30
2023-03-12T01:15:38.162Z,4.50
2023-03-12T01:18:12.381Z,3.10
2023-03-12T01:20:47.171Z,5.30
2023-03-12T01:23:21.334Z,5.40
2023-03-12T01:25:55.865Z,5.90
2023-03-12T01:28:30.463Z,4.00
2023-03-12T01:31:11.675Z,5.40
2023-03-12T01:33:45.924Z,5.80
2023-03-12T01:36:24.461Z,3.50
2023-03-12T01:39:00.830Z,4.10
2023-03-12T01:41:36.595Z,4.40
2023-03-12T01:44:16.131Z,5.60
2023-03-12T01:46:50.537Z,5.90
2023-03-12T01:49:31.299Z,5.80
2023-03-12T01:52:10.286Z,4.90
2023-03-12T01:54:55.679Z,5.20
2023-03-12T01:57:35.880Z,5.80
2023-03-12T02:00:15.370Z,3.10
2023-03-12T02:02:52.436Z,4.50
2023-03-12T02:05:34.902Z,4.70
2023-03-12T02:08:09.480Z,3.30
2023-03-12T02:10:43.693Z,4.40
2023-03-12T02:13:18.262Z,4.40
2023-03-12T02:15:53.790Z,4.70
2023-03-12T02:18:29.007Z,3.60
2023-03-12T02:21:15.007Z,2.80
2023-03-12T02:23:58.265Z,4.10
2023-03-12T02:26:34.990Z,2.80
2023-03-12T02:29:10.693Z,4.00
2023-03-12T02:31:51.621Z,3.40
2023-03-12T02:34:26.182Z,2.60
2023-03-12T02:37:00.462Z,2.90
2023-03-12T02:39:34.476Z,2.40
2023-03-12T02:42:09.124Z,3.00
2023-03-12T02:44:43.868Z,3.20
2023-03-12T02:47:18.358Z,3.20
2023-03-12T02:49:53.671Z,3.10
2023-03-12T02:52:27.862Z,2.90
2023-03-12T02:55:01.914Z,1.70
2023-03-12T02:57:37.672Z,2.80
2023-03-12T03:00:17.103Z,2.50
2023-03-12T03:02:54.621Z,2.00
2023-03-12T03:05:28.692Z,2.50
2023-03-12T03:08:02.616Z,2.70
2023-03-12T03:10:36.795Z,2.50
2023-03-12T03:13:10.847Z,2.30
2023-03-12T03:15:45.070Z,3.00
2023-03-12T03:18:19.393Z,2.00
2023-03-12T03:21:00.380Z,2.50
2023-03-12T03:23:35.404Z,2.40
2023-03-12T03:26:09.513Z,2.40
2023-03-12T03:31:17.281Z,2.50
2023-03-12T03:33:51.848Z,2.30
2023-03-12T03:36:25.961Z,1.90
2023-03-12T03:39:12.401Z,2.20
2023-03-12T03:41:47.404Z,1.70
2023-03-12T03:44:23.201Z,1.90
2023-03-12T03:46:57.809Z,1.90
2023-03-12T03:49:31.881Z,2.50
2023-03-12T03:52:06.406Z,3.00
2023-03-12T03:54:41.982Z,1.70
2023-03-12T03:57:16.577Z,2.00
2023-03-12T03:59:50.618Z,1.70
2023-03-12T04:02:25.233Z,1.80
2023-03-12T04:05:01.334Z,2.20
2023-03-12T04:07:35.598Z,2.10
2023-03-12T04:10:11.982Z,2.30
2023-03-12T04:12:46.156Z,2.30
2023-03-12T04:15:20.708Z,2.00
2023-03-12T04:17:55.151Z,1.50
2023-03-12T04:20:29.467Z,1.60
2023-03-12T04:23:03.569Z,1.80
2023-03-12T04:25:38.050Z,1.90
2023-03-12T04:28:12.234Z,1.60
2023-03-12T04:30:46.413Z,1.00
2023-03-12T04:33:20.412Z,1.50
2023-03-12T04:35:56.774Z,1.90
2023-03-12T04:38:33.049Z,1.00
2023-03-12T04:41:12.522Z,1.90
2023-03-12T04:43:50.443Z,1.10
2023-03-12T04:46:24.881Z,1.70
2023-03-12T04:49:02.585Z,1.70
2023-03-12T04:51:37.653Z,1.80
2023-03-12T04:54:12.009Z,1.20
2023-03-12T04:56:46.436Z,1.50
2023-03-12T04:59:20.759Z,1.80
2023-03-12T05:01:54.891Z,1.60
2023-03-12T05:04:33.798Z,1.60
2023-03-12T05:07:08.084Z,1.90
2023-03-12T05:09:44.236Z,2.00
2023-03-12T05:12:18.710Z,2.00
2023-03-12T05:14:52.993Z,1.70
2023-03-12T05:17:27.018Z,2.00
2023-03-12T05:20:01.233Z,1.60
2023-03-12T05:22:35.497Z,1.40
2023-03-12T05:25:11.931Z,1.50
2023-03-12T05:27:46.215Z,1.80
2023-03-12T05:30:22.558Z,1.90
2023-03-12T05:32:56.650Z,1.60
2023-03-12T05:35:31.319Z,1.50
2023-03-12T05:38:05.480Z,1.80
2023-03-12T05:40:39.670Z,2.10
2023-03-12T05:43:14.047Z,1.70
2023-03-12T05:45:48.052Z,2.10
2023-03-12T05:48:22.701Z,1.70
2023-03-12T05:50:57.812Z,1.20
2023-03-12T05:53:31.983Z,1.80
2023-03-12T05:56:12.541Z,1.60
2023-03-12T05:58:48.839Z,1.50
2023-03-12T06:01:28.355Z,1.80
2023-03-12T06:04:06.062Z,1.50
2023-03-12T06:06:41.656Z,1.50
2023-03-12T06:09:16.045Z,1.30
2023-03-12T06:11:50.144Z,2.20
2023-03-12T06:14:24.533Z,1.40
2023-03-12T06:16:59.125Z,1.70
2023-03-12T06:19:33.172Z,1.70
2023-03-12T06:22:07.308Z,1.80
2023-03-12T06:24:42.698Z,1.20
2023-03-12T06:27:17.358Z,1.50
2023-03-12T06:29:51.652Z,2.00
2023-03-12T06:32:26.202Z,1.80
2023-03-12T06:35:01.468Z,1.70
2023-03-12T06:37:35.929Z,1.80
2023-03-12T06:40:13.962Z,1.60
2023-03-12T06:42:48.845Z,1.50
2023-03-12T06:45:23.385Z,1.50
2023-03-12T06:47:57.680Z,1.40
2023-03-12T06:50:32.003Z,0.90
2023-03-12T06:53:06.306Z,1.60
2023-03-12T06:55:40.861Z,1.30
2023-03-12T06:58:15.625Z,1.50
2023-03-12T07:00:49.908Z,1.60
2023-03-12T07:03:24.807Z,1.50
2023-03-12T07:06:01.020Z,1.20
2023-03-12T07:08:35.442Z,1.60
2023-03-12T07:11:09.955Z,1.50
2023-03-12T07:13:45.100Z,1.40
2023-03-12T07:16:19.792Z,1.40
2023-03-12T07:18:54.119Z,1.20
2023-03-12T07:21:28.506Z,1.20
2023-03-12T07:24:06.924Z,1.60
2023-03-12T07:26:41.176Z,1.80
2023-03-12T07:29:15.816Z,2.00
2023-03-12T07:31:50.025Z,2.00
2023-03-12T07:34:24.446Z,1.50
2023-03-12T07:36:58.776Z,1.60
2023-03-12T07:39:33.507Z,1.80
2023-03-12T07:42:08.451Z,1.80
2023-03-12T07:44:43.392Z,1.60
2023-03-12T07:47:24.012Z,1.90
2023-03-12T07:49:58.689Z,1.60
2023-03-12T07:52:33.389Z,1.80
2023-03-12T07:55:10.052Z,1.60
2023-03-12T07:57:45.549Z,1.70
2023-03-12T08:00:24.597Z,1.70
2023-03-12T08:02:59.724Z,1.70
2023-03-12T08:05:34.127Z,1.80
2023-03-12T08:08:09.192Z,2.20
2023-03-12T08:10:45.416Z,1.60
2023-03-12T08:13:23.267Z,1.50
2023-03-12T08:16:01.204Z,1.40
2023-03-12T08:18:37.134Z,1.90
2023-03-12T08:21:16.480Z,1.50
2023-03-12T08:23:53.201Z,1.60
2023-03-12T08:26:30.171Z,1.30
2023-03-12T08:29:07.167Z,2.20
2023-03-12T08:32:01.531Z,1.50
2023-03-12T08:34:40.664Z,1.90
2023-03-12T08:37:17.203Z,1.80
2023-03-12T08:39:53.165Z,2.30
2023-03-12T08:42:30.150Z,2.00
2023-03-12T08:45:07.367Z,1.90
2023-03-12T08:47:44.706Z,1.40
2023-03-12T08:50:23.193Z,2.20
2023-03-12T08:52:59.187Z,1.70
2023-03-12T08:55:35.206Z,1.60
2023-03-12T08:58:11.167Z,2.30
2023-03-12T09:00:47.155Z,2.20
2023-03-12T09:03:23.190Z,1.70
2023-03-12T09:06:13.311Z,2.00
2023-03-12T09:08:52.169Z,1.60
2023-03-12T09:19:09.394Z,1.60
2023-03-12T09:21:44.190Z,1.80
2023-03-12T09:24:18.444Z,1.30
2023-03-12T09:26:52.945Z,1.80
2023-03-12T09:29:27.588Z,1.50
2023-03-12T09:32:03.629Z,1.80
2023-03-12T09:34:39.081Z,1.70
2023-03-12T09:37:13.624Z,1.30
2023-03-12T09:39:50.381Z,1.30
2023-03-12T09:42:34.481Z,1.30
2023-03-12T09:45:18.429Z,1.40
2023-03-12T09:47:56.971Z,1.00
2023-03-12T09:50:35.654Z,1.10
2023-03-12T09:53:27.586Z,1.40
2023-03-12T09:56:10.233Z,1.00
2023-03-12T09:58:48.324Z,1.40
2023-03-12T10:01:43.416Z,1.50
2023-03-12T10:04:59.061Z,1.40
2023-03-12T10:07:43.181Z,1.30
2023-03-12T10:10:30.451Z,1.10
2023-03-12T10:13:22.731Z,1.00
2023-03-12T10:16:13.253Z,1.00
2023-03-12T10:19:09.365Z,0.80
2023-03-12T10:21:53.582Z,1.20
2023-03-12T10:24:43.906Z,1.20
2023-03-12T10:27:21.847Z,1.50
2023-03-12T10:29:59.296Z,1.60
2023-03-12T10:32:45.650Z,1.30
2023-03-12T10:35:24.397Z,1.40
2023-03-12T10:38:01.754Z,1.50
2023-03-12T10:40:39.181Z,1.70
2023-03-12T10:43:13.684Z,1.60
2023-03-12T10:46:03.112Z,1.60
2023-03-12T10:48:37.800Z,1.70
2023-03-12T10:51:14.876Z,1.20
2023-03-12T10:53:49.535Z,0.90
2023-03-12T10:56:24.518Z,1.10
2023-03-12T10:59:00.051Z,1.20
2023-03-12T11:01:38.073Z,1.50
2023-03-12T11:04:24.305Z,1.40
2023-03-12T11:07:23.924Z,1.50
2023-03-12T11:10:21.941Z,1.30
2023-03-12T11:13:07.173Z,1.40
2023-03-12T11:15:46.200Z,1.40
2023-03-12T11:18:36.834Z,1.40
2023-03-12T11:21:23.214Z,1.60
2023-03-12T11:24:14.303Z,1.50
2023-03-12T11:26:58.794Z,1.10
2023-03-12T11:29:40.027Z,1.40
2023-03-12T11:32:25.105Z,1.30
2023-03-12T11:35:00.486Z,1.70
2023-03-12T11:37:56.681Z,1.10
2023-03-12T11:40:54.333Z,1.20
2023-03-12T11:43:50.844Z,1.10
2023-03-12T11:46:40.935Z,1.30
2023-03-12T11:49:31.736Z,1.10
2023-03-12T11:52:17.973Z,1.40
2023-03-12T11:55:18.410Z,1.20
2023-03-12T11:58:13.523Z,1.70
2023-03-12T12:00:58.982Z,1.70
2023-03-12T12:04:35.248Z,1.20
2023-03-12T12:07:23.706Z,1.30
2023-03-12T12:10:08.127Z,1.40
2023-03-12T12:13:04.774Z,1.50
2023-03-12T12:15:52.347Z,1.30
2023-03-12T12:18:49.969Z,1.30
2023-03-12T12:21:44.928Z,1.60
2023-03-12T12:24:40.387Z,1.20
2023-03-12T12:27:24.114Z,1.70
2023-03-12T12:30:17.226Z,1.80
2023-03-12T12:33:18.988Z,2.30
2023-03-12T12:35:53.570Z,1.50
2023-03-12T12:38:36.737Z,1.70
2023-03-12T12:41:19.061Z,1.80
2023-03-12T12:43:59.138Z,1.40
2023-03-12T12:46:39.022Z,1.40
2023-03-12T12:49:20.424Z,1.60
2023-03-12T12:51:59.518Z,1.60
2023-03-12T12:54:51.189Z,1.40
2023-03-12T12:57:34.681Z,1.80
2023-03-12T13:00:41.840Z,1.50
2023-03-12T13:03:22.196Z,1.70
2023-03-12T13:06:03.553Z,1.70
2023-03-12T13:09:01.552Z,2.00
2023-03-12T13:11:45.312Z,1.80
2023-03-12T13:14:39.748Z,1.70
2023-03-12T13:17:30.962Z,1.70
2023-03-12T13:20:20.982Z,2.00
2023-03-12T13:23:23.141Z,1.90
2023-03-12T13:26:15.882Z,1.90
2023-03-12T13:29:21.560Z,2.10
2023-03-12T13:31:56.827Z,1.80
2023-03-12T13:34:48.412Z,1.40
2023-03-12T13:38:05.526Z,1.60
2023-03-12T13:41:01.113Z,1.90
2023-03-12T13:43:56.373Z,1.60
2023-03-12T13:46:45.768Z,1.80
2023-03-12T13:49:23.099Z,1.80
2023-03-12T13:52:22.287Z,1.40
2023-03-12T13:55:08.040Z,1.40
2023-03-12T13:57:46.184Z,1.20
2023-03-12T14:00:30.208Z,1.50
2023-03-12T14:03:12.598Z,2.10
2023-03-12T14:05:58.905Z,1.50
2023-03-12T14:08:57.661Z,1.40
2023-03-12T14:12:01.447Z,1.50
2023-03-12T14:15:01.766Z,1.20
2023-03-12T14:17:39.496Z,1.30
2023-03-12T14:20:23.271Z,2.10
2023-03-12T14:23:05.133Z,1.60
2023-03-12T14:25:44.590Z,1.70
2023-03-12T14:28:23.616Z,1.70
2023-03-12T14:31:06.792Z,1.40
2023-03-12T14:33:57.440Z,1.70
2023-03-12T14:36:40.434Z,1.50
2023-03-12T14:39:29.877Z,2.80
2023-03-12T14:42:08.002Z,1.80
2023-03-12T14:44:54.524Z,1.50
2023-03-12T14:47:29.562Z,2.50
2023-03-12T14:50:04.079Z,2.10
2023-03-12T14:52:38.377Z,1.90
2023-03-12T14:55:21.731Z,1.60
2023-03-12T14:58:17.006Z,1.70
2023-03-12T15:01:01.857Z,2.00
2023-03-12T15:03:45.343Z,2.00
2023-03-12T15:06:31.030Z,2.00
2023-03-12T15:09:08.530Z,1.70
2023-03-12T15:11:43.444Z,2.00
2023-03-12T15:14:21.799Z,2.20
2023-03-12T15:16:59.403Z,2.40
2023-03-12T15:19:40.465Z,2.20
2023-03-12T15:22:22.216Z,2.10
2023-03-12T15:24:56.504Z,2.40
2023-03-12T15:27:38.307Z,2.30
2023-03-12T15:33:14.537Z,2.80
2023-03-12T15:36:06.278Z,2.80
2023-03-12T15:38:48.564Z,3.00
2023-03-12T15:41:27.775Z,3.20
2023-03-12T15:44:04.128Z,3.10
2023-03-12T15:46:38.612Z,3.10
2023-03-12T15:49:27.913Z,3.50
2023-03-12T15:52:30.022Z,3.50
2023-03-12T15:55:30.445Z,3.60
2023-03-12T15:58:25.257Z,2.80
2023-03-12T16:01:10.358Z,3.00
2023-03-12T16:03:46.784Z,3.20
2023-03-12T16:06:25.456Z,1.60
2023-03-12T16:09:03.842Z,3.20
2023-03-12T16:11:41.226Z,2.20
2023-03-12T16:14:24.742Z,2.20
2023-03-12T16:16:58.887Z,2.10
2023-03-12T16:19:35.047Z,2.10
2023-03-12T16:22:09.543Z,1.40
2023-03-12T16:24:44.081Z,2.50
2023-03-12T16:27:30.354Z,2.60
2023-03-12T16:30:08.306Z,1.90
2023-03-12T16:32:42.759Z,1.70
2023-03-12T16:35:23.710Z,1.80
2023-03-12T16:37:58.851Z,1.90
2023-03-12T16:40:36.724Z,2.10
2023-03-12T16:43:19.509Z,2.20
2023-03-12T16:45:56.860Z,1.80
2023-03-12T16:48:31.715Z,2.20
2023-03-12T16:51:14.037Z,2.20
2023-03-12T16:53:55.873Z,2.00
2023-03-12T16:56:42.723Z,2.20
2023-03-12T16:59:28.047Z,2.00
2023-03-12T17:02:02.914Z,2.10
2023-03-12T17:04:37.509Z,2.50
2023-03-12T17:07:11.789Z,2.50
2023-03-12T17:09:46.353Z,2.30
2023-03-12T17:12:31.435Z,3.20
2023-03-12T17:15:12.963Z,2.70
2023-03-12T17:17:47.379Z,2.30
2023-03-12T17:20:25.063Z,2.90
2023-03-12T17:23:00.107Z,3.00
2023-03-12T17:25:38.517Z,3.20
2023-03-12T17:28:13.751Z,4.90
2023-03-12T17:30:48.641Z,6.10
2023-03-12T17:33:25.416Z,6.20
2023-03-12T17:36:06.644Z,6.50
2023-03-12T17:38:41.296Z,7.50
2023-03-12T17:41:26.013Z,6.80
2023-03-12T17:44:02.223Z,5.60
2023-03-12T17:46:39.239Z,5.30
2023-03-12T17:49:16.798Z,4.60
2023-03-12T17:51:51.227Z,4.90
2023-03-12T17:54:25.998Z,4.80
2023-03-12T17:57:00.227Z,5.10
2023-03-12T17:59:34.551Z,5.00
2023-03-12T18:02:11.292Z,5.10
2023-03-12T18:04:45.874Z,4.60
2023-03-12T18:07:20.569Z,4.30
2023-03-12T18:09:55.095Z,4.60
2023-03-12T18:12:29.641Z,4.50
2023-03-12T18:15:04.207Z,4.20
2023-03-12T18:17:38.741Z,4.30
2023-03-12T18:20:21.283Z,4.40
2023-03-12T18:23:00.348Z,5.10
2023-03-12T18:25:35.322Z,4.40
2023-03-12T18:28:10.451Z,5.10
2023-03-12T18:30:46.230Z,5.00
2023-03-12T18:33:20.965Z,5.80
2023-03-12T18:35:55.435Z,4.70
2023-03-12T18:38:31.220Z,5.70
2023-03-12T18:41:12.369Z,4.40
2023-03-12T18:43:47.357Z,4.60
2023-03-12T18:46:23.925Z,4.10
2023-03-12T18:48:58.339Z,4.50
2023-03-12T18:51:33.223Z,4.10
2023-03-12T18:54:08.092Z,4.20
2023-03-12T18:56:42.305Z,4.00
2023-03-12T18:59:17.130Z,5.20
2023-03-12T19:01:52.247Z,4.70
2023-03-12T19:04:27.041Z,4.30
2023-03-12T19:07:01.977Z,3.80
2023-03-12T19:09:36.679Z,3.60
2023-03-12T19:12:11.548Z,3.20
2023-03-12T19:14:45.982Z,3.40
2023-03-12T19:17:20.684Z,4.70
2023-03-12T19:19:55.543Z,4.90
2023-03-12T19:22:29.972Z,7.40
2023-03-12T19:25:04.361Z,8.10
2023-03-12T19:27:38.953Z,7.70
2023-03-12T19:30:16.410Z,6.90
2023-03-12T19:32:50.919Z,5.70
2023-03-12T19:35:28.023Z,5.00
2023-03-12T19:38:02.391Z,5.80
2023-03-12T19:40:37.109Z,6.40
2023-03-12T19:43:11.844Z,8.00
2023-03-12T19:45:46.215Z,9.60
2023-03-12T19:48:20.719Z,14.30
2023-03-12T19:50:56.087Z,10.30
2023-03-12T19:53:30.840Z,9.20
2023-03-12T19:56:05.697Z,9.50
2023-03-12T19:58:40.029Z,7.20
2023-03-12T20:01:14.494Z,7.40
2023-03-12T20:03:48.977Z,10.40
2023-03-12T20:06:23.383Z,9.30
2023-03-12T20:08:57.981Z,10.20
2023-03-12T20:11:32.306Z,7.10
2023-03-12T20:14:06.859Z,8.10
2023-03-12T20:16:41.256Z,8.10
2023-03-12T20:19:15.764Z,8.20
2023-03-12T20:21:50.589Z,8.10
2023-03-12T20:24:25.206Z,9.10
2023-03-12T20:26:59.688Z,10.00
2023-03-12T20:29:33.983Z,12.60
2023-03-12T20:32:08.543Z,10.30
2023-03-12T20:34:43.007Z,8.50
2023-03-12T20:37:18.255Z,11.60
2023-03-12T20:39:53.184Z,10.90
2023-03-12T20:42:28.270Z,11.10
2023-03-12T20:45:03.795Z,12.10
2023-03-12T20:47:48.163Z,12.40
2023-03-12T20:50:24.105Z,11.50
2023-03-12T20:52:58.376Z,13.40
2023-03-12T20:55:32.914Z,12.20
2023-03-12T20:58:07.696Z,11.60
2023-03-12T21:00:44.243Z,8.00
2023-03-12T21:03:20.592Z,7.10
2023-03-12T21:06:01.756Z,5.20
2023-03-12T21:08:36.106Z,5.20
2023-03-12T21:11:11.987Z,4.60
2023-03-12T21:13:46.218Z,3.70
2023-03-12T21:16:20.590Z,4.00
2023-03-12T21:18:59.150Z,3.90
2023-03-12T21:21:36.539Z,3.50
2023-03-12T21:24:11.577Z,3.50
2023-03-12T21:26:46.243Z,3.40
2023-03-12T21:29:22.072Z,3.60
2023-03-12T21:31:57.632Z,3.60
2023-03-12T21:34:34.312Z,4.10
2023-03-12T21:37:08.493Z,3.30
2023-03-12T21:39:42.782Z,3.40
2023-03-12T21:42:17.111Z,3.90
2023-03-12T21:44:51.419Z,3.80
2023-03-12T21:47:25.854Z,4.30
2023-03-12T21:50:00.249Z,4.80
2023-03-12T21:52:43.088Z,3.90
2023-03-12T21:55:18.448Z,4.00
2023-03-12T21:57:52.733Z,5.80
2023-03-12T22:00:27.453Z,6.00
2023-03-12T22:03:01.624Z,5.70
2023-03-12T22:05:35.921Z,5.70
2023-03-12T22:08:10.316Z,5.60
2023-03-12T22:10:45.277Z,5.80
2023-03-12T22:13:19.557Z,6.70
2023-03-12T22:15:59.252Z,7.50
2023-03-12T22:18:36.034Z,8.50
2023-03-12T22:21:14.777Z,10.20
2023-03-12T22:23:51.242Z,11.40
2023-03-12T22:26:27.095Z,11.00
2023-03-12T22:29:02.407Z,10.30
2023-03-12T22:31:36.650Z,9.40
2023-03-12T22:34:10.796Z,9.90
2023-03-12T22:36:44.884Z,8.20
2023-03-12T22:39:20.980Z,8.50
2023-03-12T22:41:55.193Z,7.90
2023-03-12T22:44:29.497Z,6.70
2023-03-12T22:47:03.979Z,6.80
2023-03-12T22:49:38.444Z,6.70
2023-03-12T22:52:12.852Z,6.90
2023-03-12T22:54:48.438Z,6.10
2023-03-12T22:57:22.581Z,7.40
2023-03-12T22:59:56.863Z,7.40
2023-03-12T23:02:31.219Z,6.60
2023-03-12T23:05:05.971Z,6.30
2023-03-12T23:07:40.329Z,7.10
2023-03-12T23:10:15.697Z,6.00
2023-03-12T23:12:50.126Z,6.30
2023-03-12T23:15:35.099Z,6.00
2023-03-12T23:18:14.743Z,5.90
2023-03-12T23:20:58.477Z,6.00
2023-03-12T23:23:33.154Z,6.50
2023-03-12T23:26:07.525Z,5.20
2023-03-12T23:28:41.845Z,5.30
2023-03-12T23:31:17.045Z,6.00
2023-03-12T23:33:51.587Z,5.30
2023-03-12T23:36:27.185Z,5.30
2023-03-12T23:39:01.449Z,5.70
2023-03-12T23:41:35.777Z,5.50
2023-03-12T23:44:10.547Z,5.40
2023-03-12T23:46:45.541Z,4.90
2023-03-12T23:49:19.703Z,4.60
2023-03-12T23:51:53.793Z,4.50
2023-03-12T23:54:27.922Z,4.80
2023-03-12T23:57:02.025Z,5.10
2023-03-12T23:59:36.381Z,4.80
